Terminal Aerodrome Forecast
Issued by NWS

Home | Current Version | Previous Version | Text Only | Print | Product List | Glossary On
Versions: 1 2 3 4 5 6 7 8 9 10 11 12 13 14 15 16 17 18 19 20 21 22 23 24 25 26 27 28 29 30 31 32 33 34 35 36 37 38 39 40 41
000
FTUS42 KRAH 281635 AAB
TAFRWI
TAF AMD
KRWI 281635Z 2817/2912 18006KT P6SM BKN040
      TEMPO 2817/2819 BKN025
     FM290000 18003KT P6SM SCT040 BKN250
     FM290700 17001KT 4SM BR SCT007
      TEMPO 2908/2911 1SM BR BKN007=

USA.gov is the U.S. government's official web portal to all federal, state and local government web resources and services.